createdAt,value
2018-05-16T00:00:09.416Z,92.00
2018-05-16T00:02:42.783Z,92.60
2018-05-16T00:05:15.431Z,92.50
2018-05-16T00:07:48.046Z,92.50
2018-05-16T00:10:20.671Z,92.40
2018-05-16T00:12:53.275Z,92.20
2018-05-16T00:15:25.915Z,92.00
2018-05-16T00:17:58.515Z,91.70
2018-05-16T00:20:31.135Z,91.40
2018-05-16T00:23:03.766Z,92.00
2018-05-16T00:25:36.447Z,92.40
2018-05-16T00:28:09.802Z,92.70
2018-05-16T00:30:42.440Z,92.60
2018-05-16T00:33:15.802Z,93.20
2018-05-16T00:35:48.435Z,93.10
2018-05-16T00:38:21.047Z,93.00
2018-05-16T00:40:53.687Z,93.20
2018-05-16T00:43:26.290Z,93.70
2018-05-16T00:45:58.926Z,93.70
2018-05-16T00:48:31.538Z,93.50
2018-05-16T00:51:15.940Z,93.70
2018-05-16T00:53:48.534Z,93.80
2018-05-16T00:56:21.179Z,93.70
2018-05-16T00:58:53.871Z,93.80
2018-05-16T01:01:26.509Z,94.00
2018-05-16T01:03:59.059Z,94.10
2018-05-16T01:06:31.674Z,94.30
2018-05-16T01:09:04.279Z,94.20
2018-05-16T01:11:37.112Z,94.30
2018-05-16T01:14:10.517Z,94.50
2018-05-16T01:16:43.155Z,94.40
2018-05-16T01:19:15.751Z,94.20
2018-05-16T01:21:48.395Z,94.50
2018-05-16T01:24:21.758Z,94.70
2018-05-16T01:26:54.388Z,94.60
2018-05-16T01:29:27.751Z,94.90
2018-05-16T01:32:00.398Z,94.80
2018-05-16T01:34:33.792Z,94.90
2018-05-16T01:37:06.431Z,94.90
2018-05-16T01:39:39.791Z,94.90
2018-05-16T01:42:12.423Z,94.90
2018-05-16T01:44:45.020Z,95.20
2018-05-16T01:47:17.638Z,95.20
2018-05-16T01:49:50.234Z,95.20
2018-05-16T01:52:22.877Z,95.20
2018-05-16T01:54:55.481Z,95.20
2018-05-16T01:57:28.119Z,95.00
2018-05-16T02:00:00.731Z,94.90
2018-05-16T02:02:34.159Z,95.00
2018-05-16T02:05:06.833Z,94.90
2018-05-16T02:07:39.472Z,94.80
2018-05-16T02:10:12.073Z,95.00
2018-05-16T02:12:44.694Z,95.10
2018-05-16T02:15:17.290Z,95.00
2018-05-16T02:17:49.931Z,95.20
2018-05-16T02:20:22.531Z,95.20
2018-05-16T02:22:55.147Z,95.10
2018-05-16T02:25:27.748Z,94.90
2018-05-16T02:28:00.371Z,94.70
2018-05-16T02:30:33.156Z,94.90
2018-05-16T02:33:06.552Z,94.20
2018-05-16T02:35:39.151Z,94.10
2018-05-16T02:38:12.561Z,94.80
2018-05-16T02:40:45.163Z,94.40
2018-05-16T02:43:18.575Z,94.50
2018-05-16T02:45:51.239Z,94.50
2018-05-16T02:48:23.872Z,94.40
2018-05-16T02:50:56.484Z,94.20
2018-05-16T02:53:29.131Z,94.40
2018-05-16T02:56:02.490Z,94.50
2018-05-16T02:58:35.143Z,94.40
2018-05-16T03:01:08.508Z,94.50
2018-05-16T03:03:41.148Z,94.40
2018-05-16T03:06:13.747Z,94.80
2018-05-16T03:08:46.384Z,94.70
2018-05-16T03:11:18.987Z,94.90
2018-05-16T03:13:51.654Z,94.80
2018-05-16T03:16:24.287Z,94.90
2018-05-16T03:18:57.689Z,95.10
2018-05-16T03:21:30.286Z,95.10
2018-05-16T03:24:03.823Z,95.40
2018-05-16T03:26:36.415Z,95.30
2018-05-16T03:29:09.027Z,95.50
2018-05-16T03:31:41.651Z,95.50
2018-05-16T03:34:15.786Z,95.50
2018-05-16T03:36:48.379Z,95.40
2018-05-16T03:39:21.016Z,95.80
2018-05-16T03:41:53.620Z,95.90
2018-05-16T03:44:26.268Z,95.80
2018-05-16T03:46:59.691Z,96.00
2018-05-16T03:49:33.099Z,95.80
2018-05-16T03:52:06.534Z,95.80
2018-05-16T03:54:39.131Z,95.80
2018-05-16T03:57:23.787Z,96.00
2018-05-16T04:00:08.246Z,96.10
2018-05-16T04:02:52.638Z,96.00
2018-05-16T04:05:25.259Z,96.10
2018-05-16T04:07:57.884Z,96.10
2018-05-16T04:10:31.286Z,96.20
2018-05-16T04:13:03.894Z,96.10
2018-05-16T04:15:37.299Z,96.50
2018-05-16T04:18:10.664Z,96.10
2018-05-16T04:20:43.287Z,96.10
2018-05-16T04:23:15.888Z,96.40
2018-05-16T04:25:49.291Z,96.70
2018-05-16T04:28:21.939Z,96.70
2018-05-16T04:30:55.343Z,97.00
2018-05-16T04:33:27.948Z,97.00
2018-05-16T04:36:00.598Z,97.10
2018-05-16T04:38:33.963Z,96.70
2018-05-16T04:41:06.596Z,96.70
2018-05-16T04:43:39.194Z,96.60
2018-05-16T04:46:11.813Z,96.80
2018-05-16T04:48:44.416Z,96.30
2018-05-16T04:51:17.055Z,96.20
2018-05-16T04:53:50.423Z,96.70
2018-05-16T04:56:23.060Z,96.70
2018-05-16T04:58:55.680Z,97.20
2018-05-16T05:01:28.315Z,97.40
2018-05-16T05:04:00.914Z,96.90
2018-05-16T05:06:33.554Z,96.80
2018-05-16T05:09:06.159Z,96.60
2018-05-16T05:11:38.812Z,96.80
2018-05-16T05:14:12.180Z,97.00
2018-05-16T05:16:44.835Z,97.00
2018-05-16T05:19:17.436Z,96.70
2018-05-16T05:21:50.063Z,96.60
2018-05-16T05:24:22.663Z,95.90
2018-05-16T05:26:55.300Z,96.30
2018-05-16T05:29:27.891Z,96.30
2018-05-16T05:32:00.539Z,97.60
2018-05-16T05:34:33.175Z,97.50
2018-05-16T05:37:06.551Z,99.20
2018-05-16T05:39:39.153Z,99.20
2018-05-16T05:42:12.555Z,98.20
2018-05-16T05:44:45.153Z,98.20
2018-05-16T05:47:18.541Z,98.30
2018-05-16T05:49:51.143Z,98.30
2018-05-16T05:52:23.763Z,98.20
2018-05-16T05:54:57.133Z,98.40
2018-05-16T05:57:29.781Z,98.40
2018-05-16T06:00:02.406Z,98.30
2018-05-16T06:02:35.053Z,98.00
2018-05-16T06:05:08.459Z,96.70
2018-05-16T06:07:41.848Z,96.90
2018-05-16T06:10:14.457Z,96.90
2018-05-16T06:12:47.188Z,96.60
2018-05-16T06:15:19.726Z,96.50
2018-05-16T06:17:53.127Z,97.20
2018-05-16T06:20:26.619Z,97.20
2018-05-16T06:22:59.259Z,96.50
2018-05-16T06:25:31.854Z,96.40
2018-05-16T06:28:04.487Z,96.20
2018-05-16T06:30:37.099Z,95.90
2018-05-16T06:33:09.748Z,95.70
2018-05-16T06:35:42.351Z,94.80
2018-05-16T06:38:14.978Z,95.80
2018-05-16T06:40:47.580Z,94.90
2018-05-16T06:43:20.986Z,95.40
2018-05-16T06:45:53.717Z,95.30
2018-05-16T06:48:26.304Z,94.80
2018-05-16T06:50:58.903Z,94.40
2018-05-16T06:53:31.547Z,95.10
2018-05-16T06:56:04.147Z,94.40
2018-05-16T06:58:36.786Z,94.60
2018-05-16T07:01:09.389Z,95.30
2018-05-16T07:03:42.287Z,95.40
2018-05-16T07:06:14.891Z,95.30
2018-05-16T07:08:47.539Z,95.90
2018-05-16T07:11:20.140Z,96.00
2018-05-16T07:13:52.791Z,95.30
2018-05-16T07:16:25.395Z,94.50
2018-05-16T07:18:58.020Z,94.90
2018-05-16T07:21:31.603Z,93.90
2018-05-16T07:24:04.229Z,93.80
2018-05-16T07:26:36.831Z,92.60
2018-05-16T07:29:10.215Z,92.70
2018-05-16T07:31:42.819Z,92.70
2018-05-16T07:34:16.238Z,92.80
2018-05-16T07:36:48.835Z,92.80
2018-05-16T07:39:22.248Z,92.50
2018-05-16T07:41:55.622Z,93.30
2018-05-16T07:44:28.264Z,93.20
2018-05-16T07:47:00.891Z,91.90
2018-05-16T07:49:33.511Z,91.70
2018-05-16T07:52:06.884Z,90.90
2018-05-16T07:54:39.508Z,90.80
2018-05-16T07:57:12.887Z,90.10
2018-05-16T07:59:45.535Z,89.70
2018-05-16T08:02:18.622Z,90.10
2018-05-16T08:04:52.039Z,90.60
2018-05-16T08:07:32.920Z,91.50
2018-05-16T08:10:06.336Z,90.00
2018-05-16T08:12:39.703Z,86.70
2018-05-16T08:15:12.328Z,86.70
2018-05-16T08:17:45.695Z,89.20
2018-05-16T08:20:18.317Z,89.20
2018-05-16T08:22:50.922Z,85.80
2018-05-16T08:25:24.299Z,88.10
2018-05-16T08:27:56.899Z,88.10
2018-05-16T08:30:29.515Z,85.90
2018-05-16T08:33:02.888Z,84.80
2018-05-16T08:35:35.515Z,84.80
2018-05-16T08:38:08.131Z,85.80
2018-05-16T08:40:40.775Z,85.70
2018-05-16T08:43:13.379Z,84.50
2018-05-16T08:45:46.789Z,84.30
2018-05-16T08:48:19.382Z,84.30
2018-05-16T08:50:52.022Z,80.90
2018-05-16T08:53:24.621Z,82.40
2018-05-16T08:55:57.254Z,83.00
2018-05-16T08:58:30.622Z,82.40
2018-05-16T09:01:03.244Z,82.40
2018-05-16T09:03:35.843Z,81.00
2018-05-16T09:06:09.227Z,82.60
2018-05-16T09:08:41.826Z,82.50
2018-05-16T09:11:14.454Z,81.30
2018-05-16T09:13:47.050Z,82.00
2018-05-16T09:16:19.675Z,83.00
2018-05-16T09:18:52.275Z,81.80
2018-05-16T09:21:24.903Z,83.20
2018-05-16T09:23:58.264Z,80.30
2018-05-16T09:26:30.892Z,80.40
2018-05-16T09:29:03.495Z,76.30
2018-05-16T09:31:36.906Z,76.10
2018-05-16T09:34:10.286Z,75.50
2018-05-16T09:36:42.926Z,75.30
2018-05-16T09:39:15.555Z,74.80
2018-05-16T09:41:48.186Z,76.80
2018-05-16T09:44:21.546Z,70.90
2018-05-16T09:46:54.179Z,70.90
2018-05-16T09:49:26.780Z,69.50
2018-05-16T09:52:00.189Z,66.00
2018-05-16T09:54:33.567Z,67.60
2018-05-16T09:57:06.212Z,67.60
2018-05-16T09:59:38.877Z,66.80
2018-05-16T10:02:11.538Z,67.60
2018-05-16T10:04:44.140Z,67.80
2018-05-16T10:07:16.764Z,64.00
2018-05-16T10:09:50.138Z,68.70
2018-05-16T10:12:22.768Z,68.70
2018-05-16T10:14:56.128Z,69.00
2018-05-16T10:17:28.849Z,69.80
2018-05-16T10:20:01.455Z,68.30
2018-05-16T10:22:34.107Z,60.40
2018-05-16T10:25:06.710Z,63.40
2018-05-16T10:27:39.367Z,62.90
2018-05-16T10:30:11.971Z,63.90
2018-05-16T10:32:44.604Z,60.40
2018-05-16T10:35:17.979Z,57.40
2018-05-16T10:37:50.620Z,57.00
2018-05-16T10:40:23.993Z,51.10
2018-05-16T10:42:56.617Z,51.00
2018-05-16T10:45:29.979Z,56.40
2018-05-16T10:48:02.641Z,56.40
2018-05-16T10:50:35.258Z,50.00
2018-05-16T10:53:07.879Z,49.60
2018-05-16T10:55:40.488Z,54.60
2018-05-16T10:58:13.889Z,53.10
2018-05-16T11:00:47.284Z,48.60
2018-05-16T11:03:19.930Z,48.60
2018-05-16T11:05:52.553Z,51.20
2018-05-16T11:08:25.233Z,52.40
2018-05-16T11:10:57.857Z,51.00
2018-05-16T11:13:30.500Z,54.00
2018-05-16T11:16:03.090Z,50.80
2018-05-16T11:18:35.695Z,53.80
2018-05-16T11:21:08.298Z,53.50
2018-05-16T11:23:40.961Z,54.30
2018-05-16T11:26:13.559Z,53.70
2018-05-16T11:28:46.319Z,54.40
2018-05-16T11:31:19.695Z,53.30
2018-05-16T11:33:52.344Z,53.30
2018-05-16T11:36:25.000Z,52.80
2018-05-16T11:38:58.439Z,53.10
2018-05-16T11:41:31.072Z,52.80
2018-05-16T11:44:03.747Z,53.20
2018-05-16T11:46:36.347Z,52.60
2018-05-16T11:49:08.973Z,49.70
2018-05-16T11:51:41.570Z,52.00
2018-05-16T11:54:14.971Z,51.80
2018-05-16T11:56:47.577Z,51.70
2018-05-16T11:59:21.023Z,53.00
2018-05-16T12:01:53.619Z,53.00
2018-05-16T12:04:26.240Z,52.40
2018-05-16T12:06:58.860Z,53.60
2018-05-16T12:09:32.308Z,54.10
2018-05-16T12:12:04.918Z,54.10
2018-05-16T12:14:37.549Z,54.80
2018-05-16T12:17:10.929Z,55.50
2018-05-16T12:19:43.564Z,55.30
2018-05-16T12:22:16.164Z,55.30
2018-05-16T12:24:48.794Z,55.50
2018-05-16T12:27:21.413Z,55.50
2018-05-16T12:29:54.036Z,55.70
2018-05-16T12:32:26.627Z,56.80
2018-05-16T12:34:59.244Z,56.90
2018-05-16T12:37:31.852Z,57.10
2018-05-16T12:40:04.468Z,57.30
2018-05-16T12:42:37.832Z,56.70
2018-05-16T12:45:10.480Z,57.60
2018-05-16T12:47:43.095Z,56.90
2018-05-16T12:50:15.734Z,57.10
2018-05-16T12:52:48.329Z,55.60
2018-05-16T12:55:20.978Z,54.90
2018-05-16T12:57:53.599Z,56.30
2018-05-16T13:00:26.235Z,57.10
2018-05-16T13:02:58.838Z,58.40
2018-05-16T13:05:31.483Z,58.20
2018-05-16T13:08:04.079Z,58.90
2018-05-16T13:10:36.709Z,58.50
2018-05-16T13:13:09.315Z,59.30
2018-05-16T13:15:41.979Z,58.90
2018-05-16T13:18:15.387Z,63.30
2018-05-16T13:20:48.012Z,63.30
2018-05-16T13:23:20.616Z,66.30
2018-05-16T13:25:53.260Z,68.50
2018-05-16T13:28:25.860Z,70.80
2018-05-16T13:30:58.496Z,73.10
2018-05-16T13:33:31.103Z,74.00
2018-05-16T13:36:03.753Z,75.00
2018-05-16T13:38:36.382Z,74.60
2018-05-16T13:41:09.024Z,75.40
2018-05-16T13:43:42.712Z,74.40
2018-05-16T13:46:15.352Z,74.50
2018-05-16T13:48:47.967Z,75.00
2018-05-16T13:51:20.611Z,76.10
2018-05-16T13:53:53.319Z,76.70
2018-05-16T13:56:25.957Z,78.10
2018-05-16T13:58:58.563Z,78.60
2018-05-16T14:01:31.190Z,80.40
2018-05-16T14:04:03.793Z,79.60
2018-05-16T14:06:36.495Z,80.90
2018-05-16T14:09:09.060Z,81.60
2018-05-16T14:11:41.717Z,81.30
2018-05-16T14:14:14.340Z,79.30
2018-05-16T14:16:47.760Z,78.90
2018-05-16T14:19:20.380Z,78.90
2018-05-16T14:21:53.035Z,77.40
2018-05-16T14:24:26.406Z,76.40
2018-05-16T14:26:59.027Z,76.40
2018-05-16T14:29:31.647Z,79.70
2018-05-16T14:32:04.303Z,78.30
2018-05-16T14:34:37.702Z,80.40
2018-05-16T14:37:10.361Z,80.30
2018-05-16T14:39:42.953Z,80.90
2018-05-16T14:42:15.596Z,77.50
2018-05-16T14:44:48.965Z,74.60
2018-05-16T14:47:21.583Z,74.60
2018-05-16T14:49:54.180Z,73.80
2018-05-16T14:52:26.829Z,74.60
2018-05-16T14:55:00.540Z,73.20
2018-05-16T14:57:33.194Z,71.70
2018-05-16T15:00:06.572Z,71.30
2018-05-16T15:02:39.215Z,71.30
2018-05-16T15:05:11.828Z,72.00
2018-05-16T15:07:44.452Z,72.00
2018-05-16T15:10:17.051Z,72.10
2018-05-16T15:12:53.175Z,72.10
2018-05-16T15:15:25.787Z,74.80
2018-05-16T15:17:58.436Z,72.90
2018-05-16T15:20:31.035Z,73.30
2018-05-16T15:23:03.679Z,73.10
2018-05-16T15:25:36.270Z,73.80
2018-05-16T15:28:08.911Z,73.00
2018-05-16T15:30:41.514Z,74.20
2018-05-16T15:33:14.131Z,73.30
2018-05-16T15:35:46.736Z,73.60
2018-05-16T15:38:19.358Z,73.70
2018-05-16T15:40:52.732Z,73.20
2018-05-16T15:43:25.349Z,73.20
2018-05-16T15:45:58.720Z,72.10
2018-05-16T15:48:31.367Z,72.10
2018-05-16T15:51:03.968Z,71.30
2018-05-16T15:53:36.607Z,71.90
2018-05-16T15:56:09.217Z,71.20
2018-05-16T15:58:42.622Z,70.80
2018-05-16T16:01:15.246Z,70.60
2018-05-16T16:03:47.868Z,70.80
2018-05-16T16:06:20.471Z,70.10
2018-05-16T16:08:53.099Z,69.70
2018-05-16T16:11:26.460Z,70.30
2018-05-16T16:13:59.185Z,70.30
2018-05-16T16:16:31.704Z,68.50
2018-05-16T16:19:04.342Z,70.00
2018-05-16T16:21:36.931Z,70.60
2018-05-16T16:24:09.573Z,69.70
2018-05-16T16:26:42.185Z,69.10
2018-05-16T16:29:14.825Z,69.10
2018-05-16T16:31:47.450Z,68.80
2018-05-16T16:34:20.115Z,68.50
2018-05-16T16:36:52.720Z,69.50
2018-05-16T16:39:26.127Z,69.90
2018-05-16T16:41:58.759Z,69.80
2018-05-16T16:44:31.410Z,67.30
2018-05-16T16:47:04.792Z,67.80
2018-05-16T16:49:37.443Z,67.70
2018-05-16T16:52:10.052Z,67.00
2018-05-16T16:54:42.687Z,67.10
2018-05-16T16:57:15.388Z,67.90
2018-05-16T16:59:47.938Z,68.40
2018-05-16T17:02:20.533Z,68.90
2018-05-16T17:04:53.151Z,69.10
2018-05-16T17:07:25.762Z,69.40
2018-05-16T17:09:58.428Z,70.00
2018-05-16T17:12:31.024Z,70.40
2018-05-16T17:15:03.676Z,69.60
2018-05-16T17:17:36.321Z,69.30
2018-05-16T17:20:09.012Z,70.00
2018-05-16T17:22:41.620Z,70.20
2018-05-16T17:25:15.048Z,69.50
2018-05-16T17:27:47.639Z,69.50
2018-05-16T17:30:20.365Z,69.20
2018-05-16T17:32:52.898Z,69.00
2018-05-16T17:35:26.310Z,69.00
2018-05-16T17:37:58.927Z,68.50
2018-05-16T17:40:31.565Z,69.00
2018-05-16T17:43:04.172Z,69.00
2018-05-16T17:45:37.567Z,69.30
2018-05-16T17:48:10.162Z,69.20
2018-05-16T17:50:42.819Z,70.00
2018-05-16T17:53:15.428Z,70.30
2018-05-16T17:55:48.954Z,69.90
2018-05-16T17:58:21.580Z,69.90
2018-05-16T18:00:54.310Z,69.80
2018-05-16T18:03:27.631Z,71.60
2018-05-16T18:06:00.264Z,71.60
2018-05-16T18:08:33.632Z,72.00
2018-05-16T18:11:06.287Z,72.10
2018-05-16T18:13:59.754Z,72.40
2018-05-16T18:16:44.288Z,72.90
2018-05-16T18:19:17.842Z,73.00
2018-05-16T18:21:50.499Z,73.30
2018-05-16T18:24:23.136Z,73.50
2018-05-16T18:26:55.762Z,73.90
2018-05-16T18:29:28.418Z,73.70
2018-05-16T18:32:01.023Z,74.50
2018-05-16T18:34:33.631Z,74.70
2018-05-16T18:37:06.272Z,73.70
2018-05-16T18:39:38.893Z,73.50
2018-05-16T18:42:16.131Z,72.40
2018-05-16T18:44:48.747Z,72.80
2018-05-16T18:47:21.397Z,72.60
2018-05-16T18:49:54.002Z,72.40
2018-05-16T18:52:26.687Z,72.10
2018-05-16T18:54:59.287Z,72.20
2018-05-16T18:57:31.928Z,72.40
2018-05-16T19:00:04.536Z,72.80
2018-05-16T19:02:37.179Z,72.40
2018-05-16T19:05:09.786Z,72.50
2018-05-16T19:07:43.194Z,72.80
2018-05-16T19:10:16.551Z,71.90
2018-05-16T19:12:49.187Z,71.90
2018-05-16T19:15:22.547Z,72.20
2018-05-16T19:17:55.188Z,72.20
2018-05-16T19:20:27.787Z,71.70
2018-05-16T19:23:00.437Z,71.70
2018-05-16T19:25:33.042Z,71.70
2018-05-16T19:28:05.671Z,71.00
2018-05-16T19:30:39.031Z,71.70
2018-05-16T19:33:11.655Z,71.60
2018-05-16T19:35:45.015Z,72.20
2018-05-16T19:38:17.638Z,72.20
2018-05-16T19:40:51.015Z,73.00
2018-05-16T19:43:23.644Z,72.20
2018-05-16T19:45:56.265Z,72.40
2018-05-16T19:48:28.935Z,72.20
2018-05-16T19:51:01.551Z,72.40
2018-05-16T19:53:34.195Z,73.40
2018-05-16T19:56:06.807Z,72.50
2018-05-16T19:58:40.492Z,72.60
2018-05-16T20:01:13.804Z,72.70
2018-05-16T20:03:46.428Z,72.70
2018-05-16T20:06:19.041Z,72.50
2018-05-16T20:08:51.655Z,73.00
2018-05-16T20:11:24.247Z,73.10
2018-05-16T20:13:57.646Z,73.80
2018-05-16T20:16:30.281Z,73.80
2018-05-16T20:19:03.888Z,73.50
2018-05-16T20:21:36.512Z,73.50
2018-05-16T20:24:09.920Z,74.00
2018-05-16T20:26:43.295Z,73.40
2018-05-16T20:29:15.984Z,73.30
2018-05-16T20:31:48.557Z,73.10
2018-05-16T20:34:21.203Z,73.10
2018-05-16T20:36:53.808Z,73.00
2018-05-16T20:39:30.131Z,72.90
2018-05-16T20:42:02.740Z,72.80
2018-05-16T20:44:35.380Z,72.60
2018-05-16T20:47:07.995Z,72.80
2018-05-16T20:49:40.691Z,72.90
2018-05-16T20:52:13.300Z,72.80
2018-05-16T20:54:45.923Z,72.60
2018-05-16T20:57:19.283Z,72.80
2018-05-16T20:59:51.923Z,72.80
2018-05-16T21:02:24.519Z,72.80
2018-05-16T21:04:57.908Z,73.40
2018-05-16T21:07:30.511Z,72.60
2018-05-16T21:10:03.123Z,72.70
2018-05-16T21:12:35.729Z,73.00
2018-05-16T21:15:08.364Z,73.00
2018-05-16T21:17:40.967Z,72.90
2018-05-16T21:20:13.720Z,72.80
2018-05-16T21:22:46.320Z,72.90
2018-05-16T21:25:18.953Z,73.00
2018-05-16T21:27:52.339Z,72.90
2018-05-16T21:30:24.986Z,72.90
2018-05-16T21:32:57.586Z,73.00
2018-05-16T21:35:30.251Z,72.80
2018-05-16T21:38:03.628Z,72.60
2018-05-16T21:40:36.259Z,72.70
2018-05-16T21:43:08.846Z,72.80
2018-05-16T21:45:42.255Z,72.90
2018-05-16T21:48:15.615Z,73.00
2018-05-16T21:50:48.247Z,73.60
2018-05-16T21:53:21.602Z,72.90
2018-05-16T21:55:54.238Z,72.90
2018-05-16T21:58:26.843Z,72.90
2018-05-16T22:01:00.233Z,73.10
2018-05-16T22:03:32.822Z,73.00
2018-05-16T22:06:05.456Z,72.90
2018-05-16T22:08:38.069Z,72.80
2018-05-16T22:11:10.692Z,72.90
2018-05-16T22:13:43.283Z,73.00
2018-05-16T22:16:15.915Z,73.00
2018-05-16T22:18:48.504Z,73.00
2018-05-16T22:21:21.146Z,73.30
2018-05-16T22:23:53.746Z,73.30
2018-05-16T22:26:26.384Z,73.30
2018-05-16T22:28:58.992Z,72.50
2018-05-16T22:31:37.400Z,73.10
2018-05-16T22:34:15.604Z,73.50
2018-05-16T22:36:53.856Z,73.60
2018-05-16T22:39:32.123Z,73.50
2018-05-16T22:42:10.408Z,73.60
2018-05-16T22:44:49.467Z,73.80
2018-05-16T22:47:22.078Z,73.40
2018-05-16T22:49:54.675Z,73.90
2018-05-16T22:52:27.302Z,74.10
2018-05-16T22:55:00.659Z,74.90
2018-05-16T22:57:33.314Z,75.60
2018-05-16T23:00:05.904Z,75.80
2018-05-16T23:02:38.545Z,76.50
2018-05-16T23:05:11.167Z,77.20
2018-05-16T23:07:51.175Z,79.50
2018-05-16T23:10:23.767Z,79.50
2018-05-16T23:12:56.556Z,79.80
2018-05-16T23:15:29.160Z,80.80
2018-05-16T23:18:01.791Z,81.00
2018-05-16T23:20:34.387Z,80.00
2018-05-16T23:23:07.796Z,81.30
2018-05-16T23:25:41.164Z,82.80
2018-05-16T23:28:13.782Z,82.80
2018-05-16T23:30:46.454Z,83.30
2018-05-16T23:33:19.051Z,83.80
2018-05-16T23:35:51.659Z,83.30
2018-05-16T23:38:24.291Z,83.10
2018-05-16T23:40:56.903Z,83.20
2018-05-16T23:43:29.535Z,84.00
2018-05-16T23:46:02.139Z,85.30
2018-05-16T23:48:34.769Z,85.50
2018-05-16T23:51:07.371Z,84.80
2018-05-16T23:53:39.988Z,85.40
2018-05-16T23:56:12.584Z,84.60
2018-05-16T23:58:45.210Z,84.60
